createdAt,value
2022-12-06T00:00:16.507Z,182
2022-12-06T00:01:24.703Z,180
2022-12-06T00:02:32.882Z,181
2022-12-06T00:03:42.055Z,183
2022-12-06T00:04:51.239Z,183
2022-12-06T00:06:00.403Z,183
2022-12-06T00:07:09.587Z,181
2022-12-06T00:08:18.762Z,183
2022-12-06T00:09:27.925Z,179
2022-12-06T00:10:37.114Z,181
2022-12-06T00:11:46.270Z,180
2022-12-06T00:12:55.426Z,182
2022-12-06T00:14:04.609Z,181
2022-12-06T00:15:13.794Z,181
2022-12-06T00:16:22.959Z,181
2022-12-06T00:17:31.141Z,180
2022-12-06T00:18:40.333Z,181
2022-12-06T00:19:49.489Z,181
2022-12-06T00:20:58.674Z,181
2022-12-06T00:22:07.839Z,179
2022-12-06T00:23:17.014Z,180
2022-12-06T00:24:26.177Z,182
2022-12-06T00:25:34.389Z,183
2022-12-06T00:26:42.582Z,181
2022-12-06T00:27:51.751Z,181
2022-12-06T00:29:00.913Z,181
2022-12-06T00:30:10.095Z,182
2022-12-06T00:31:19.286Z,181
2022-12-06T00:32:28.438Z,182
2022-12-06T00:33:37.760Z,182
2022-12-06T00:34:46.778Z,180
2022-12-06T00:35:55.962Z,183
2022-12-06T00:37:05.139Z,180
2022-12-06T00:38:14.312Z,182
2022-12-06T00:39:23.470Z,183
2022-12-06T00:40:32.643Z,181
2022-12-06T00:41:40.835Z,183
2022-12-06T00:42:50.011Z,181
2022-12-06T00:43:59.186Z,182
2022-12-06T00:45:08.360Z,182
2022-12-06T00:46:17.537Z,183
2022-12-06T00:47:26.701Z,183
2022-12-06T00:48:35.873Z,180
2022-12-06T00:49:44.073Z,182
2022-12-06T00:50:52.263Z,181
2022-12-06T00:52:00.463Z,182
2022-12-06T00:53:08.648Z,183
2022-12-06T00:54:17.820Z,180
2022-12-06T00:55:26.993Z,184
2022-12-06T00:56:36.174Z,182
2022-12-06T00:57:45.333Z,181
2022-12-06T00:58:54.511Z,182
2022-12-06T01:00:03.691Z,180
2022-12-06T01:01:12.849Z,182
2022-12-06T01:02:22.029Z,181
2022-12-06T01:03:31.200Z,181
2022-12-06T01:04:40.372Z,181
2022-12-06T01:05:49.547Z,182
2022-12-06T01:06:58.719Z,182
2022-12-06T01:08:06.912Z,181
2022-12-06T01:09:16.079Z,181
2022-12-06T01:10:25.257Z,180
2022-12-06T01:11:34.442Z,181
2022-12-06T01:12:43.621Z,182
2022-12-06T01:13:52.761Z,179
2022-12-06T01:15:01.951Z,181
2022-12-06T01:16:10.145Z,183
2022-12-06T01:17:18.336Z,182
2022-12-06T01:18:27.500Z,181
2022-12-06T01:19:35.697Z,183
2022-12-06T01:20:43.903Z,181
2022-12-06T01:21:53.056Z,182
2022-12-06T01:23:02.230Z,181
2022-12-06T01:24:11.409Z,181
2022-12-06T01:25:20.569Z,185
2022-12-06T01:26:29.741Z,183
2022-12-06T01:27:38.913Z,182
2022-12-06T01:28:48.096Z,181
2022-12-06T01:29:57.282Z,184
2022-12-06T01:31:06.436Z,183
2022-12-06T01:32:15.619Z,180
2022-12-06T01:33:24.795Z,182
2022-12-06T01:34:33.957Z,182
2022-12-06T01:35:42.147Z,181
2022-12-06T01:36:51.320Z,183
2022-12-06T01:38:00.528Z,180
2022-12-06T01:39:09.663Z,185
2022-12-06T01:40:18.855Z,181
2022-12-06T01:41:28.030Z,183
2022-12-06T01:42:37.185Z,182
2022-12-06T01:43:45.386Z,182
2022-12-06T01:44:53.567Z,182
2022-12-06T01:46:01.764Z,180
2022-12-06T01:47:09.972Z,181
2022-12-06T01:48:19.122Z,181
2022-12-06T01:49:28.291Z,181
2022-12-06T01:50:37.460Z,181
2022-12-06T01:51:46.635Z,182
2022-12-06T01:52:55.813Z,181
2022-12-06T01:54:05.003Z,182
2022-12-06T01:55:14.173Z,181
2022-12-06T01:57:32.517Z,181
2022-12-06T01:58:41.690Z,182
2022-12-06T01:59:50.913Z,182
2022-12-06T02:01:00.019Z,183
2022-12-06T02:02:08.209Z,181
2022-12-06T02:03:17.406Z,180
2022-12-06T02:04:26.567Z,181
2022-12-06T02:05:35.731Z,184
2022-12-06T02:06:44.910Z,181
2022-12-06T02:07:54.079Z,183
2022-12-06T02:09:03.256Z,180
2022-12-06T02:10:12.435Z,183
2022-12-06T02:11:20.621Z,183
2022-12-06T02:12:28.822Z,185
2022-12-06T02:13:37.012Z,181
2022-12-06T02:14:45.195Z,181
2022-12-06T02:15:54.358Z,181
2022-12-06T02:17:03.549Z,183
2022-12-06T02:18:12.720Z,179
2022-12-06T02:19:21.877Z,179
2022-12-06T02:20:31.069Z,181
2022-12-06T02:21:40.231Z,181
2022-12-06T02:22:49.393Z,181
2022-12-06T02:23:58.569Z,182
2022-12-06T02:25:07.754Z,182
2022-12-06T02:26:16.914Z,181
2022-12-06T02:27:26.098Z,180
2022-12-06T02:28:35.269Z,181
2022-12-06T02:29:43.446Z,182
2022-12-06T02:30:52.622Z,181
2022-12-06T02:32:01.803Z,181
2022-12-06T02:33:10.987Z,180
2022-12-06T02:34:20.143Z,183
2022-12-06T02:35:29.313Z,181
2022-12-06T02:36:38.489Z,179
2022-12-06T02:37:46.680Z,179
2022-12-06T02:38:54.876Z,181
2022-12-06T02:40:04.040Z,181
2022-12-06T02:41:13.223Z,181
2022-12-06T02:42:21.417Z,179
2022-12-06T02:43:29.608Z,182
2022-12-06T02:44:37.804Z,181
2022-12-06T02:45:47.023Z,181
2022-12-06T02:46:56.150Z,181
2022-12-06T02:48:05.320Z,184
2022-12-06T02:49:14.490Z,180
2022-12-06T02:50:23.692Z,182
2022-12-06T02:51:32.850Z,180
2022-12-06T02:52:42.005Z,183
2022-12-06T02:53:51.183Z,181
2022-12-06T02:55:00.414Z,183
2022-12-06T02:56:09.518Z,183
2022-12-06T02:57:18.703Z,182
2022-12-06T02:58:27.875Z,183
2022-12-06T02:59:36.050Z,181
2022-12-06T03:00:45.230Z,183
2022-12-06T03:01:54.406Z,182
2022-12-06T03:03:03.569Z,181
2022-12-06T03:04:12.748Z,182
2022-12-06T03:05:21.918Z,180
2022-12-06T03:06:30.130Z,181
2022-12-06T03:07:38.295Z,181
2022-12-06T03:08:46.501Z,181
2022-12-06T03:09:54.685Z,181
2022-12-06T03:11:03.856Z,182
2022-12-06T03:12:13.044Z,183
2022-12-06T03:13:22.207Z,183
2022-12-06T03:14:31.387Z,181
2022-12-06T03:15:40.556Z,182
2022-12-06T03:16:49.724Z,180
2022-12-06T03:17:58.913Z,184
2022-12-06T03:19:08.064Z,181
2022-12-06T03:20:17.251Z,180
2022-12-06T03:21:26.412Z,189
2022-12-06T03:22:35.586Z,181
2022-12-06T03:23:44.773Z,183
2022-12-06T03:24:52.959Z,182
2022-12-06T03:26:02.126Z,181
2022-12-06T03:27:11.298Z,182
2022-12-06T03:28:20.464Z,182
2022-12-06T03:29:29.640Z,183
2022-12-06T03:30:38.821Z,181
2022-12-06T03:31:47.988Z,180
2022-12-06T03:32:56.191Z,183
2022-12-06T03:34:04.395Z,183
2022-12-06T03:35:13.547Z,180
2022-12-06T03:36:22.727Z,182
2022-12-06T03:37:31.889Z,182
2022-12-06T03:38:41.090Z,181
2022-12-06T03:39:50.223Z,181
2022-12-06T03:40:59.401Z,183
2022-12-06T03:42:07.594Z,181
2022-12-06T03:43:15.784Z,184
2022-12-06T03:44:24.964Z,198
2022-12-06T03:45:34.145Z,200
2022-12-06T03:46:43.315Z,197
2022-12-06T03:47:52.489Z,198
2022-12-06T03:49:01.654Z,198
2022-12-06T03:50:10.829Z,197
2022-12-06T03:51:20.003Z,197
2022-12-06T03:52:29.171Z,180
2022-12-06T03:53:38.349Z,181
2022-12-06T03:54:47.537Z,181
2022-12-06T03:57:05.875Z,180
2022-12-06T03:58:14.139Z,181
2022-12-06T03:59:23.222Z,181
2022-12-06T04:00:32.409Z,179
2022-12-06T04:01:41.568Z,181
2022-12-06T04:02:50.748Z,180
2022-12-06T04:03:59.917Z,181
2022-12-06T04:05:09.090Z,180
2022-12-06T04:06:18.263Z,181
2022-12-06T04:07:27.434Z,181
2022-12-06T04:09:44.807Z,185
2022-12-06T04:10:53.006Z,181
2022-12-06T04:12:01.242Z,184
2022-12-06T04:13:10.375Z,183
2022-12-06T04:14:19.599Z,180
2022-12-06T04:15:27.729Z,180
2022-12-06T04:16:35.946Z,181
2022-12-06T04:17:45.094Z,181
2022-12-06T04:18:54.266Z,183
2022-12-06T04:20:03.518Z,180
2022-12-06T04:21:12.608Z,182
2022-12-06T04:22:21.792Z,181
2022-12-06T04:23:30.964Z,181
2022-12-06T04:24:40.123Z,181
2022-12-06T04:25:49.304Z,182
2022-12-06T04:26:58.481Z,183
2022-12-06T04:28:07.656Z,180
2022-12-06T04:29:16.822Z,181
2022-12-06T04:30:26.076Z,181
2022-12-06T04:31:34.189Z,181
2022-12-06T04:32:43.350Z,181
2022-12-06T04:33:52.525Z,179
2022-12-06T04:35:01.689Z,180
2022-12-06T04:36:10.870Z,180
2022-12-06T04:37:20.055Z,183
2022-12-06T04:38:29.238Z,181
2022-12-06T04:39:37.424Z,181
2022-12-06T04:40:46.582Z,180
2022-12-06T04:41:54.795Z,183
2022-12-06T04:43:02.967Z,181
2022-12-06T04:44:12.135Z,181
2022-12-06T04:45:21.315Z,182
2022-12-06T04:46:30.499Z,183
2022-12-06T04:47:39.660Z,182
2022-12-06T04:48:48.832Z,181
2022-12-06T04:51:07.174Z,181
2022-12-06T04:52:16.353Z,181
2022-12-06T04:53:25.520Z,181
2022-12-06T04:54:34.702Z,181
2022-12-06T04:55:43.868Z,181
2022-12-06T04:56:53.057Z,180
2022-12-06T04:58:01.241Z,181
2022-12-06T04:59:10.401Z,181
2022-12-06T05:00:19.575Z,181
2022-12-06T05:01:28.757Z,181
2022-12-06T05:02:37.936Z,176
2022-12-06T05:03:47.107Z,182
2022-12-06T05:04:56.267Z,181
2022-12-06T05:06:05.440Z,181
2022-12-06T05:07:14.613Z,181
2022-12-06T05:08:23.795Z,182
2022-12-06T05:09:32.962Z,180
2022-12-06T05:10:42.120Z,181
2022-12-06T05:11:51.308Z,183
2022-12-06T05:12:59.513Z,192
2022-12-06T05:14:07.693Z,191
2022-12-06T05:15:16.865Z,191
2022-12-06T05:16:26.040Z,191
2022-12-06T05:17:34.234Z,191
2022-12-06T05:19:51.618Z,192
2022-12-06T05:21:00.765Z,192
2022-12-06T05:22:09.936Z,192
2022-12-06T05:23:19.108Z,192
2022-12-06T05:24:28.288Z,188
2022-12-06T05:25:37.460Z,193
2022-12-06T05:26:46.630Z,191
2022-12-06T05:27:55.799Z,191
2022-12-06T05:29:04.985Z,194
2022-12-06T05:30:14.147Z,191
2022-12-06T05:31:23.329Z,191
2022-12-06T05:32:32.507Z,191
2022-12-06T05:33:40.681Z,191
2022-12-06T05:34:49.862Z,194
2022-12-06T05:35:59.029Z,191
2022-12-06T05:37:08.205Z,190
2022-12-06T05:38:17.379Z,191
2022-12-06T05:40:35.812Z,190
2022-12-06T05:41:44.890Z,192
2022-12-06T05:42:54.068Z,191
2022-12-06T05:45:11.436Z,190
2022-12-06T05:46:19.623Z,192
2022-12-06T05:47:27.820Z,192
2022-12-06T05:48:36.011Z,190
2022-12-06T05:49:44.191Z,190
2022-12-06T05:50:53.379Z,191
2022-12-06T05:52:02.572Z,190
2022-12-06T05:53:11.712Z,192
2022-12-06T05:54:20.893Z,190
2022-12-06T05:55:30.088Z,191
2022-12-06T05:56:39.231Z,191
2022-12-06T05:57:48.571Z,190
2022-12-06T05:58:57.583Z,191
2022-12-06T06:00:06.761Z,192
2022-12-06T06:01:15.941Z,191
2022-12-06T06:02:25.096Z,192
2022-12-06T06:03:34.316Z,191
2022-12-06T06:04:42.465Z,191
2022-12-06T06:05:51.648Z,191
2022-12-06T06:07:00.799Z,191
2022-12-06T06:08:09.974Z,191
2022-12-06T06:09:19.146Z,191
2022-12-06T06:11:37.506Z,191
2022-12-06T06:12:46.679Z,190
2022-12-06T06:13:54.868Z,191
2022-12-06T06:15:03.064Z,194
2022-12-06T06:16:12.235Z,192
2022-12-06T06:17:21.407Z,192
2022-12-06T06:18:30.575Z,192
2022-12-06T06:19:38.841Z,193
2022-12-06T06:20:46.964Z,192
2022-12-06T06:21:56.124Z,191
2022-12-06T06:23:05.316Z,194
2022-12-06T06:24:14.478Z,192
2022-12-06T06:25:23.648Z,192
2022-12-06T06:26:32.818Z,195
2022-12-06T06:27:41.991Z,193
2022-12-06T06:28:51.171Z,191
2022-12-06T06:30:00.343Z,194
2022-12-06T06:32:18.698Z,189
2022-12-06T06:33:27.845Z,223
2022-12-06T06:34:37.039Z,215
2022-12-06T06:35:45.231Z,213
2022-12-06T06:36:54.389Z,213
2022-12-06T06:38:03.571Z,214
2022-12-06T06:39:12.751Z,209
2022-12-06T06:40:21.946Z,211
2022-12-06T06:41:31.078Z,211
2022-12-06T06:42:40.259Z,211
2022-12-06T06:43:49.433Z,211
2022-12-06T06:44:57.629Z,208
2022-12-06T06:47:14.995Z,216
2022-12-06T06:48:24.172Z,217
2022-12-06T06:49:33.332Z,217
2022-12-06T06:50:41.534Z,218
2022-12-06T06:51:49.710Z,216
2022-12-06T06:52:58.891Z,216
2022-12-06T06:54:08.067Z,217
2022-12-06T06:55:17.221Z,217
2022-12-06T06:56:26.411Z,218
2022-12-06T06:57:35.572Z,215
2022-12-06T06:58:44.760Z,226
2022-12-06T06:59:53.925Z,227
2022-12-06T07:01:03.101Z,205
2022-12-06T07:02:12.280Z,203
2022-12-06T07:03:21.450Z,203
2022-12-06T07:04:30.638Z,204
2022-12-06T07:05:39.883Z,204
2022-12-06T07:06:47.978Z,204
2022-12-06T07:07:57.160Z,204
2022-12-06T07:09:06.335Z,248
2022-12-06T07:10:15.496Z,250
2022-12-06T07:11:24.667Z,250
2022-12-06T07:12:33.839Z,248
2022-12-06T07:13:43.033Z,192
2022-12-06T07:14:51.218Z,189
2022-12-06T07:15:59.401Z,193
2022-12-06T07:17:08.558Z,191
2022-12-06T07:18:17.749Z,190
2022-12-06T07:19:25.933Z,189
2022-12-06T07:20:34.124Z,189
2022-12-06T07:21:43.301Z,192
2022-12-06T07:22:52.494Z,191
2022-12-06T07:24:01.649Z,191
2022-12-06T07:25:10.854Z,193
2022-12-06T07:26:19.984Z,192
2022-12-06T07:27:29.161Z,192
2022-12-06T07:28:38.340Z,191
2022-12-06T07:29:47.510Z,191
2022-12-06T07:30:56.707Z,194
2022-12-06T07:32:05.916Z,191
2022-12-06T07:33:15.042Z,191
2022-12-06T07:34:24.202Z,191
2022-12-06T07:35:32.397Z,192
2022-12-06T07:36:41.570Z,192
2022-12-06T07:37:50.730Z,191
2022-12-06T07:38:59.911Z,191
2022-12-06T07:40:09.071Z,193
2022-12-06T07:41:18.256Z,194
2022-12-06T07:42:27.431Z,191
2022-12-06T07:43:35.629Z,194
2022-12-06T07:44:43.809Z,193
2022-12-06T07:45:52.973Z,190
2022-12-06T07:47:02.140Z,194
2022-12-06T07:49:19.613Z,192
2022-12-06T07:50:28.703Z,192
2022-12-06T07:51:36.896Z,193
2022-12-06T07:52:45.078Z,192
2022-12-06T07:53:54.302Z,194
2022-12-06T07:55:03.451Z,193
2022-12-06T07:56:12.609Z,181
2022-12-06T07:57:21.770Z,181
2022-12-06T07:58:30.949Z,179
2022-12-06T07:59:40.114Z,183
2022-12-06T08:00:49.288Z,181
2022-12-06T08:01:58.474Z,181
2022-12-06T08:03:07.705Z,181
2022-12-06T08:04:16.801Z,179
2022-12-06T08:05:25.981Z,181
2022-12-06T08:06:35.197Z,181
2022-12-06T08:07:43.342Z,181
2022-12-06T08:08:52.521Z,181
2022-12-06T08:10:01.693Z,180
2022-12-06T08:11:10.865Z,181
2022-12-06T08:12:20.070Z,182
2022-12-06T08:13:29.302Z,181
2022-12-06T08:14:38.388Z,179
2022-12-06T08:15:46.571Z,182
2022-12-06T08:16:54.778Z,181
2022-12-06T08:18:03.936Z,181
2022-12-06T08:19:12.154Z,181
2022-12-06T08:20:20.325Z,181
2022-12-06T08:21:29.556Z,179
2022-12-06T08:22:38.753Z,181
2022-12-06T08:23:47.834Z,180
2022-12-06T08:24:57.023Z,179
2022-12-06T08:26:06.180Z,181
2022-12-06T08:27:15.379Z,215
2022-12-06T08:28:24.529Z,216
2022-12-06T08:29:33.698Z,202
2022-12-06T08:30:42.867Z,204
2022-12-06T08:31:52.071Z,201
2022-12-06T08:33:01.215Z,203
2022-12-06T08:34:10.395Z,201
2022-12-06T08:35:19.559Z,203
2022-12-06T08:36:27.757Z,204
2022-12-06T08:37:36.939Z,202
2022-12-06T08:38:46.092Z,204
2022-12-06T08:39:55.304Z,202
2022-12-06T08:41:04.508Z,201
2022-12-06T08:42:13.619Z,203
2022-12-06T08:43:21.875Z,200
2022-12-06T08:44:29.998Z,203
2022-12-06T08:45:39.192Z,202
2022-12-06T08:46:48.355Z,203
2022-12-06T08:47:57.515Z,207
2022-12-06T08:49:06.688Z,237
2022-12-06T08:50:14.900Z,239
2022-12-06T08:51:23.080Z,239
2022-12-06T08:52:32.247Z,240
2022-12-06T08:53:41.486Z,238
2022-12-06T08:54:50.593Z,241
2022-12-06T08:55:59.774Z,239
2022-12-06T08:57:08.950Z,203
2022-12-06T08:58:18.314Z,203
2022-12-06T08:59:27.319Z,205
2022-12-06T09:00:36.460Z,206
2022-12-06T09:01:45.643Z,204
2022-12-06T09:02:54.792Z,203
2022-12-06T09:04:03.979Z,204
2022-12-06T09:05:13.186Z,203
2022-12-06T09:06:21.386Z,204
2022-12-06T09:07:30.515Z,205
2022-12-06T09:08:39.710Z,203
2022-12-06T09:09:48.887Z,204
2022-12-06T09:10:58.038Z,205
2022-12-06T09:12:07.215Z,160
2022-12-06T09:13:16.372Z,159
2022-12-06T09:14:24.567Z,161
2022-12-06T09:15:32.757Z,164
2022-12-06T09:16:41.934Z,160
2022-12-06T09:17:51.109Z,163
2022-12-06T09:19:00.295Z,263
2022-12-06T09:20:09.456Z,263
2022-12-06T09:21:17.642Z,264
2022-12-06T09:22:25.907Z,265
2022-12-06T09:23:35.007Z,299
2022-12-06T09:24:44.189Z,300
2022-12-06T09:25:53.354Z,308
2022-12-06T09:27:02.536Z,308
2022-12-06T09:28:11.706Z,308
2022-12-06T09:29:20.871Z,307
2022-12-06T09:30:30.053Z,308
2022-12-06T09:31:39.229Z,317
2022-12-06T09:32:48.404Z,317
2022-12-06T09:33:57.584Z,316
2022-12-06T09:35:06.736Z,317
2022-12-06T09:36:15.922Z,316
2022-12-06T09:37:24.129Z,316
2022-12-06T09:38:33.282Z,316
2022-12-06T09:39:42.441Z,316
2022-12-06T09:40:51.615Z,316
2022-12-06T09:42:00.800Z,316
2022-12-06T09:43:09.972Z,315
2022-12-06T09:44:19.139Z,316
2022-12-06T09:45:28.439Z,316
2022-12-06T09:46:37.481Z,315
2022-12-06T09:47:46.660Z,316
2022-12-06T09:48:55.843Z,316
2022-12-06T09:50:05.006Z,317
2022-12-06T09:51:14.184Z,330
2022-12-06T09:53:31.566Z,330
2022-12-06T09:54:39.737Z,274
2022-12-06T09:55:47.941Z,274
2022-12-06T09:56:56.124Z,274
2022-12-06T09:59:13.525Z,276
2022-12-06T10:00:22.670Z,273
2022-12-06T10:01:31.828Z,273
2022-12-06T10:02:40.998Z,274
2022-12-06T10:03:50.185Z,180
2022-12-06T10:04:59.355Z,187
2022-12-06T10:06:08.553Z,160
2022-12-06T10:07:17.828Z,160
2022-12-06T10:08:26.929Z,158
2022-12-06T10:09:36.062Z,162
2022-12-06T10:10:45.219Z,160
2022-12-06T10:11:54.385Z,158
2022-12-06T10:13:02.582Z,159
2022-12-06T10:14:11.753Z,161
2022-12-06T10:15:20.922Z,159
2022-12-06T10:16:30.106Z,162
2022-12-06T10:17:39.278Z,159
2022-12-06T10:18:48.453Z,159
2022-12-06T10:19:57.605Z,164
2022-12-06T10:21:06.810Z,162
2022-12-06T10:22:15.052Z,162
2022-12-06T10:23:23.250Z,163
2022-12-06T10:24:32.355Z,206
2022-12-06T10:25:41.512Z,206
2022-12-06T10:26:49.726Z,206
2022-12-06T10:27:57.905Z,206
2022-12-06T10:29:06.105Z,207
2022-12-06T10:30:15.264Z,206
2022-12-06T10:31:24.549Z,206
2022-12-06T10:32:33.614Z,206
2022-12-06T10:33:42.802Z,207
2022-12-06T10:34:52.002Z,207
2022-12-06T10:36:01.177Z,207
2022-12-06T10:37:10.300Z,207
2022-12-06T10:38:19.476Z,209
2022-12-06T10:39:28.678Z,158
2022-12-06T10:40:37.820Z,157
2022-12-06T10:41:46.996Z,160
2022-12-06T10:42:56.190Z,163
2022-12-06T10:44:04.351Z,192
2022-12-06T10:45:13.534Z,191
2022-12-06T10:46:22.705Z,190
2022-12-06T10:47:31.878Z,192
2022-12-06T10:48:41.059Z,194
2022-12-06T10:49:50.220Z,192
2022-12-06T10:50:59.391Z,195
2022-12-06T10:52:08.566Z,193
2022-12-06T10:53:16.760Z,194
2022-12-06T10:54:24.947Z,192
2022-12-06T10:55:34.118Z,195
2022-12-06T10:56:42.318Z,193
2022-12-06T10:57:50.502Z,195
2022-12-06T10:58:59.688Z,193
2022-12-06T11:00:08.859Z,167
2022-12-06T11:02:27.210Z,163
2022-12-06T11:03:36.376Z,185
2022-12-06T11:04:45.546Z,198
2022-12-06T11:05:54.725Z,199
2022-12-06T11:07:03.886Z,199
2022-12-06T11:08:13.060Z,199
2022-12-06T11:09:22.241Z,202
2022-12-06T11:10:31.406Z,200
2022-12-06T11:11:40.577Z,201
2022-12-06T11:12:48.775Z,199
2022-12-06T11:13:57.943Z,199
2022-12-06T11:15:07.113Z,199
2022-12-06T11:16:16.292Z,199
2022-12-06T11:17:25.453Z,199
2022-12-06T11:18:34.633Z,199
2022-12-06T11:19:43.808Z,243
2022-12-06T11:20:52.993Z,246
2022-12-06T11:22:01.169Z,246
2022-12-06T11:23:09.361Z,246
2022-12-06T11:24:18.533Z,249
2022-12-06T11:25:27.700Z,249
2022-12-06T11:26:36.895Z,247
2022-12-06T11:27:46.054Z,246
2022-12-06T11:28:55.212Z,247
2022-12-06T11:30:04.425Z,246
2022-12-06T11:31:13.572Z,247
2022-12-06T11:32:22.789Z,200
2022-12-06T11:33:31.927Z,232
2022-12-06T11:34:40.115Z,235
2022-12-06T11:35:48.296Z,234
2022-12-06T11:36:57.472Z,268
2022-12-06T11:38:06.647Z,279
2022-12-06T11:39:15.809Z,301
2022-12-06T11:40:24.981Z,303
2022-12-06T11:41:34.164Z,337
2022-12-06T11:42:43.336Z,338
2022-12-06T11:43:52.504Z,313
2022-12-06T11:45:01.668Z,310
2022-12-06T11:46:10.845Z,188
2022-12-06T11:47:20.028Z,192
2022-12-06T11:48:29.199Z,194
2022-12-06T11:49:38.369Z,192
2022-12-06T11:50:46.565Z,72
2022-12-06T11:51:55.729Z,55
2022-12-06T11:53:04.901Z,78
2022-12-06T11:54:14.068Z,98
2022-12-06T11:56:32.411Z,58
2022-12-06T11:57:41.601Z,57
2022-12-06T11:58:50.764Z,56
2022-12-06T11:59:58.961Z,72
2022-12-06T12:01:07.161Z,94
2022-12-06T12:02:16.370Z,93
2022-12-06T12:03:24.517Z,90
2022-12-06T12:04:32.699Z,89
2022-12-06T12:05:41.882Z,41
2022-12-06T12:06:51.059Z,97
2022-12-06T12:08:00.233Z,163
2022-12-06T12:09:09.401Z,163
2022-12-06T12:10:18.563Z,173
2022-12-06T12:11:27.739Z,179
2022-12-06T12:12:36.911Z,177
2022-12-06T12:13:46.082Z,177
2022-12-06T12:14:55.258Z,179
2022-12-06T12:16:04.440Z,246
2022-12-06T12:17:13.598Z,15
2022-12-06T12:18:22.785Z,337
2022-12-06T12:19:30.958Z,337
2022-12-06T12:20:40.142Z,336
2022-12-06T12:21:49.308Z,337
2022-12-06T12:22:58.492Z,335
2022-12-06T12:24:07.680Z,334
2022-12-06T12:25:16.883Z,334
2022-12-06T12:26:26.010Z,335
2022-12-06T12:27:34.202Z,337
2022-12-06T12:28:42.380Z,4
2022-12-06T12:29:51.570Z,38
2022-12-06T12:31:00.726Z,38
2022-12-06T12:32:08.926Z,38
2022-12-06T12:33:17.125Z,39
2022-12-06T12:35:35.456Z,325
2022-12-06T12:36:44.625Z,319
2022-12-06T12:37:53.810Z,86
2022-12-06T12:39:02.972Z,94
2022-12-06T12:40:12.155Z,97
2022-12-06T12:41:21.323Z,97
2022-12-06T12:42:30.507Z,97
2022-12-06T12:43:39.658Z,95
2022-12-06T12:44:48.835Z,97
2022-12-06T12:45:58.077Z,98
2022-12-06T12:47:07.248Z,98
2022-12-06T12:48:15.375Z,157
2022-12-06T12:49:24.550Z,158
2022-12-06T12:50:33.735Z,158
2022-12-06T12:51:42.885Z,161
2022-12-06T12:52:52.057Z,151
2022-12-06T12:54:01.254Z,147
2022-12-06T12:55:10.433Z,148
2022-12-06T12:56:19.579Z,149
2022-12-06T12:57:28.749Z,211
2022-12-06T12:58:37.923Z,211
2022-12-06T12:59:47.099Z,133
2022-12-06T13:00:56.274Z,131
2022-12-06T13:02:05.443Z,132
2022-12-06T13:03:14.629Z,132
2022-12-06T13:04:22.811Z,186
2022-12-06T13:05:31.983Z,187
2022-12-06T13:06:41.149Z,190
2022-12-06T13:07:50.325Z,187
2022-12-06T13:08:59.500Z,188
2022-12-06T13:10:08.677Z,190
2022-12-06T13:11:17.842Z,188
2022-12-06T13:12:27.014Z,188
2022-12-06T13:13:36.197Z,187
2022-12-06T13:14:45.360Z,186
2022-12-06T13:15:54.532Z,188
2022-12-06T13:17:03.707Z,187
2022-12-06T13:18:12.896Z,97
2022-12-06T13:19:21.069Z,98
2022-12-06T13:20:30.239Z,99
2022-12-06T13:21:39.412Z,99
2022-12-06T13:22:48.588Z,31
2022-12-06T13:23:57.761Z,1
2022-12-06T13:25:06.928Z,1
2022-12-06T13:26:16.105Z,238
2022-12-06T13:27:25.278Z,257
2022-12-06T13:28:34.449Z,256
2022-12-06T13:29:43.612Z,163
2022-12-06T13:30:52.796Z,17
2022-12-06T13:32:01.957Z,22
2022-12-06T13:33:11.138Z,0
2022-12-06T13:34:19.318Z,285
2022-12-06T13:35:28.499Z,285
2022-12-06T13:36:37.663Z,232
2022-12-06T13:38:56.019Z,9
2022-12-06T13:41:14.365Z,4
2022-12-06T13:42:23.562Z,135
2022-12-06T13:43:32.695Z,152
2022-12-06T13:44:41.868Z,113
2022-12-06T13:45:51.055Z,26
2022-12-06T13:47:00.216Z,25
2022-12-06T13:48:09.396Z,201
2022-12-06T13:49:17.583Z,201
2022-12-06T13:50:26.760Z,201
2022-12-06T13:51:35.922Z,279
2022-12-06T13:52:45.120Z,278
2022-12-06T13:53:54.276Z,277
2022-12-06T13:55:03.437Z,278
2022-12-06T13:56:12.620Z,225
2022-12-06T13:57:21.787Z,232
2022-12-06T13:58:30.954Z,233
2022-12-06T13:59:40.134Z,232
2022-12-06T14:00:49.300Z,234
2022-12-06T14:01:58.473Z,135
2022-12-06T14:03:07.731Z,71
2022-12-06T14:04:15.852Z,71
2022-12-06T14:05:25.009Z,71
2022-12-06T14:06:34.172Z,71
2022-12-06T14:07:42.401Z,191
2022-12-06T14:08:50.568Z,192
2022-12-06T14:09:59.731Z,342
2022-12-06T14:11:07.940Z,342
2022-12-06T14:12:16.119Z,342
2022-12-06T14:13:25.296Z,342
2022-12-06T14:14:34.468Z,341
2022-12-06T14:15:43.637Z,334
2022-12-06T14:16:52.816Z,334
2022-12-06T14:18:01.006Z,334
2022-12-06T14:19:10.178Z,333
2022-12-06T14:20:19.356Z,335
2022-12-06T14:21:28.533Z,333
2022-12-06T14:22:37.694Z,294
2022-12-06T14:23:46.867Z,297
2022-12-06T14:24:56.052Z,295
2022-12-06T14:26:05.218Z,295
2022-12-06T14:27:14.431Z,295
2022-12-06T14:28:23.584Z,296
2022-12-06T14:29:32.740Z,295
2022-12-06T14:30:41.904Z,296
2022-12-06T14:31:51.238Z,295
2022-12-06T14:32:59.269Z,294
2022-12-06T14:34:08.442Z,295
2022-12-06T14:35:17.612Z,201
2022-12-06T14:36:26.783Z,162
2022-12-06T14:37:35.953Z,164
2022-12-06T14:38:45.121Z,173
2022-12-06T14:39:54.292Z,177
2022-12-06T14:41:03.481Z,194
2022-12-06T14:42:12.651Z,194
2022-12-06T14:43:21.816Z,193
2022-12-06T14:44:31.009Z,192
2022-12-06T14:45:40.156Z,194
2022-12-06T14:46:49.334Z,194
2022-12-06T14:47:57.524Z,194
2022-12-06T14:49:06.691Z,194
2022-12-06T14:50:15.874Z,193
2022-12-06T14:51:25.049Z,192
2022-12-06T14:52:34.217Z,191
2022-12-06T14:53:43.409Z,192
2022-12-06T14:54:52.562Z,190
2022-12-06T14:56:01.726Z,190
2022-12-06T14:57:10.900Z,190
2022-12-06T14:58:20.085Z,189
2022-12-06T14:59:29.238Z,190
2022-12-06T15:00:38.422Z,190
2022-12-06T15:01:47.619Z,190
2022-12-06T15:02:55.790Z,190
2022-12-06T15:04:04.956Z,190
2022-12-06T15:05:14.199Z,189
2022-12-06T15:06:23.298Z,190
2022-12-06T15:07:32.479Z,191
2022-12-06T15:08:41.655Z,191
2022-12-06T15:09:50.833Z,190
2022-12-06T15:10:59.994Z,189
2022-12-06T15:12:09.173Z,190
2022-12-06T15:13:18.346Z,190
2022-12-06T15:14:27.520Z,190
2022-12-06T15:15:36.698Z,190
2022-12-06T15:16:45.862Z,189
2022-12-06T15:17:54.056Z,190
2022-12-06T15:19:03.220Z,190
2022-12-06T15:20:12.382Z,190
2022-12-06T15:21:21.565Z,190
2022-12-06T15:22:30.737Z,190
2022-12-06T15:23:39.923Z,190
2022-12-06T15:24:49.083Z,190
2022-12-06T15:25:58.256Z,190
2022-12-06T15:27:07.448Z,190
2022-12-06T15:28:16.599Z,190
2022-12-06T15:29:25.783Z,190
2022-12-06T15:30:34.943Z,190
2022-12-06T15:31:44.126Z,189
2022-12-06T15:32:52.339Z,190
2022-12-06T15:34:01.480Z,190
2022-12-06T15:35:10.665Z,190
2022-12-06T15:36:19.830Z,190
2022-12-06T15:37:29.006Z,190
2022-12-06T15:38:38.182Z,190
2022-12-06T15:39:47.348Z,196
2022-12-06T15:40:56.528Z,195
2022-12-06T15:42:05.696Z,195
2022-12-06T15:43:14.884Z,195
2022-12-06T15:44:23.065Z,195
2022-12-06T15:45:31.252Z,194
2022-12-06T15:46:40.428Z,195
2022-12-06T15:47:49.599Z,195
2022-12-06T15:48:58.778Z,195
2022-12-06T15:50:06.972Z,195
2022-12-06T15:51:15.149Z,194
2022-12-06T15:52:24.321Z,195
2022-12-06T15:53:33.554Z,194
2022-12-06T15:54:42.728Z,194
2022-12-06T15:55:51.852Z,194
2022-12-06T15:57:01.024Z,193
2022-12-06T15:58:10.194Z,194
2022-12-06T15:59:19.364Z,193
2022-12-06T16:00:28.623Z,194
2022-12-06T16:01:37.717Z,194
2022-12-06T16:02:46.885Z,194
2022-12-06T16:03:56.054Z,196
2022-12-06T16:05:05.235Z,193
2022-12-06T16:06:13.419Z,195
2022-12-06T16:07:22.591Z,193
2022-12-06T16:08:31.763Z,193
2022-12-06T16:09:40.939Z,194
2022-12-06T16:10:50.128Z,192
2022-12-06T16:11:59.288Z,193